createdAt,value
2017-09-26T00:00:36.250Z,973.67
2017-09-26T00:01:36.302Z,973.71
2017-09-26T00:02:36.411Z,973.68
2017-09-26T00:03:36.464Z,973.71
2017-09-26T00:04:36.450Z,973.71
2017-09-26T00:05:36.493Z,973.68
2017-09-26T00:06:36.545Z,973.70
2017-09-26T00:07:36.588Z,973.68
2017-09-26T00:08:36.707Z,973.71
2017-09-26T00:09:36.691Z,973.68
2017-09-26T00:10:36.736Z,973.72
2017-09-26T00:11:36.782Z,973.67
2017-09-26T00:12:36.831Z,973.68
2017-09-26T00:13:36.945Z,973.70
2017-09-26T00:14:36.932Z,973.70
2017-09-26T00:15:36.976Z,973.67
2017-09-26T00:16:37.025Z,973.66
2017-09-26T00:17:37.072Z,973.66
2017-09-26T00:18:37.184Z,973.60
2017-09-26T00:19:37.177Z,973.63
2017-09-26T00:20:37.216Z,973.60
2017-09-26T00:21:37.266Z,973.60
2017-09-26T00:22:37.314Z,973.61
2017-09-26T00:23:37.427Z,973.64
2017-09-26T00:24:37.413Z,973.62
2017-09-26T00:25:37.459Z,973.64
2017-09-26T00:26:37.508Z,973.64
2017-09-26T00:27:37.555Z,973.61
2017-09-26T00:28:37.667Z,973.64
2017-09-26T00:29:37.655Z,973.60
2017-09-26T00:30:37.699Z,973.60
2017-09-26T00:31:37.746Z,973.63
2017-09-26T00:32:37.794Z,973.60
2017-09-26T00:33:37.911Z,973.62
2017-09-26T00:34:37.893Z,973.63
2017-09-26T00:35:37.942Z,973.63
2017-09-26T00:36:37.988Z,973.65
2017-09-26T00:37:38.038Z,973.64
2017-09-26T00:38:38.150Z,973.63
2017-09-26T00:39:38.132Z,973.66
2017-09-26T00:40:38.179Z,973.63
2017-09-26T00:41:38.229Z,973.63
2017-09-26T00:42:38.278Z,973.62
2017-09-26T00:43:38.390Z,973.66
2017-09-26T00:44:38.370Z,973.67
2017-09-26T00:45:38.422Z,973.65
2017-09-26T00:46:38.474Z,973.66
2017-09-26T00:47:38.518Z,973.66
2017-09-26T00:48:38.631Z,973.63
2017-09-26T00:49:38.610Z,973.62
2017-09-26T00:50:38.662Z,973.66
2017-09-26T00:51:38.715Z,973.66
2017-09-26T00:52:38.770Z,973.66
2017-09-26T00:53:38.871Z,973.66
2017-09-26T00:54:38.862Z,973.61
2017-09-26T00:55:38.905Z,973.66
2017-09-26T00:56:38.952Z,973.63
2017-09-26T00:57:39.006Z,973.60
2017-09-26T00:58:39.114Z,973.64
2017-09-26T00:59:39.102Z,973.66
2017-09-26T01:00:39.145Z,973.66
2017-09-26T01:01:39.192Z,973.64
2017-09-26T01:02:39.241Z,973.66
2017-09-26T01:03:39.354Z,973.68
2017-09-26T01:04:39.337Z,973.63
2017-09-26T01:05:39.388Z,973.63
2017-09-26T01:06:39.436Z,973.63
2017-09-26T01:07:39.481Z,973.59
2017-09-26T01:08:39.604Z,973.62
2017-09-26T01:09:39.579Z,973.64
2017-09-26T01:10:39.631Z,973.58
2017-09-26T01:11:39.672Z,973.60
2017-09-26T01:12:39.726Z,973.61
2017-09-26T01:13:39.845Z,973.60
2017-09-26T01:14:39.886Z,973.63
2017-09-26T01:15:39.868Z,973.60
2017-09-26T01:16:39.915Z,973.62
2017-09-26T01:17:39.964Z,973.63
2017-09-26T01:18:40.082Z,973.59
2017-09-26T01:19:40.060Z,973.61
2017-09-26T01:20:40.109Z,973.59
2017-09-26T01:21:40.157Z,973.59
2017-09-26T01:22:40.207Z,973.60
2017-09-26T01:23:40.327Z,973.67
2017-09-26T01:24:40.303Z,973.63
2017-09-26T01:25:40.349Z,973.59
2017-09-26T01:26:40.398Z,973.60
2017-09-26T01:27:40.445Z,973.61
2017-09-26T01:28:40.578Z,973.61
2017-09-26T01:29:40.540Z,973.57
2017-09-26T01:30:40.591Z,973.63
2017-09-26T01:31:40.640Z,973.62
2017-09-26T01:32:40.688Z,973.55
2017-09-26T01:33:40.797Z,973.62
2017-09-26T01:34:40.846Z,973.59
2017-09-26T01:35:40.829Z,973.63
2017-09-26T01:36:40.878Z,973.61
2017-09-26T01:37:40.928Z,973.62
2017-09-26T01:38:40.976Z,973.64
2017-09-26T01:39:41.088Z,973.63
2017-09-26T01:40:41.072Z,973.67
2017-09-26T01:41:41.121Z,973.69
2017-09-26T01:42:41.170Z,973.67
2017-09-26T01:43:41.216Z,973.66
2017-09-26T01:44:41.329Z,973.68
2017-09-26T01:45:41.309Z,973.67
2017-09-26T01:46:41.361Z,973.63
2017-09-26T01:47:41.407Z,973.64
2017-09-26T01:48:41.457Z,973.68
2017-09-26T01:49:41.572Z,973.66
2017-09-26T01:50:41.560Z,973.65
2017-09-26T01:51:41.601Z,973.69
2017-09-26T01:52:41.650Z,973.67
2017-09-26T01:53:41.696Z,973.69
2017-09-26T01:54:41.856Z,973.72
2017-09-26T01:55:41.793Z,973.68
2017-09-26T01:56:41.841Z,973.70
2017-09-26T01:57:41.890Z,973.72
2017-09-26T01:58:41.940Z,973.71
2017-09-26T01:59:42.049Z,973.71
2017-09-26T02:00:42.099Z,973.70
2017-09-26T02:01:42.079Z,973.72
2017-09-26T02:02:42.130Z,973.69
2017-09-26T02:03:42.179Z,973.69
2017-09-26T02:04:42.226Z,973.68
2017-09-26T02:05:42.339Z,973.71
2017-09-26T02:06:42.321Z,973.69
2017-09-26T02:07:42.371Z,973.65
2017-09-26T02:08:42.422Z,973.68
2017-09-26T02:09:42.466Z,973.65
2017-09-26T02:10:42.600Z,973.65
2017-09-26T02:11:42.562Z,973.64
2017-09-26T02:12:42.608Z,973.67
2017-09-26T02:13:42.657Z,973.68
2017-09-26T02:14:42.704Z,973.68
2017-09-26T02:15:42.830Z,973.69
2017-09-26T02:16:42.804Z,973.68
2017-09-26T02:17:42.850Z,973.71
2017-09-26T02:18:42.897Z,973.69
2017-09-26T02:19:42.943Z,973.69
2017-09-26T02:20:43.081Z,973.67
2017-09-26T02:21:43.042Z,973.68
2017-09-26T02:22:43.091Z,973.66
2017-09-26T02:23:43.137Z,973.66
2017-09-26T02:24:43.183Z,973.68
2017-09-26T02:25:43.299Z,973.66
2017-09-26T02:26:43.353Z,973.67
2017-09-26T02:27:43.331Z,973.71
2017-09-26T02:28:43.377Z,973.68
2017-09-26T02:29:43.421Z,973.69
2017-09-26T02:30:43.476Z,973.70
2017-09-26T02:31:43.589Z,973.71
2017-09-26T02:32:43.566Z,973.69
2017-09-26T02:33:43.617Z,973.67
2017-09-26T02:34:43.665Z,973.75
2017-09-26T02:35:43.721Z,973.74
2017-09-26T02:36:43.828Z,973.72
2017-09-26T02:37:43.809Z,973.75
2017-09-26T02:38:43.855Z,973.73
2017-09-26T02:39:43.905Z,973.74
2017-09-26T02:40:43.954Z,973.76
2017-09-26T02:41:44.063Z,973.75
2017-09-26T02:42:44.047Z,973.77
2017-09-26T02:43:44.092Z,973.76
2017-09-26T02:44:44.142Z,973.78
2017-09-26T02:45:44.190Z,973.77
2017-09-26T02:46:44.301Z,973.78
2017-09-26T02:47:44.287Z,973.80
2017-09-26T02:48:44.333Z,973.80
2017-09-26T02:49:44.382Z,973.80
2017-09-26T02:50:44.428Z,973.77
2017-09-26T02:51:44.542Z,973.80
2017-09-26T02:52:44.524Z,973.83
2017-09-26T02:53:44.575Z,973.83
2017-09-26T02:54:44.620Z,973.82
2017-09-26T02:55:44.663Z,973.81
2017-09-26T02:56:44.779Z,973.84
2017-09-26T02:57:44.764Z,973.80
2017-09-26T02:58:44.814Z,973.81
2017-09-26T02:59:44.857Z,973.81
2017-09-26T03:00:44.904Z,973.81
2017-09-26T03:01:45.019Z,973.83
2017-09-26T03:02:45.002Z,973.83
2017-09-26T03:03:45.048Z,973.85
2017-09-26T03:04:45.097Z,973.82
2017-09-26T03:05:45.144Z,973.82
2017-09-26T03:06:45.256Z,973.85
2017-09-26T03:07:45.239Z,973.84
2017-09-26T03:08:45.289Z,973.81
2017-09-26T03:09:45.331Z,973.82
2017-09-26T03:10:45.383Z,973.84
2017-09-26T03:11:45.518Z,973.80
2017-09-26T03:12:45.474Z,973.82
2017-09-26T03:13:45.523Z,973.79
2017-09-26T03:14:45.581Z,973.78
2017-09-26T03:15:45.627Z,973.79
2017-09-26T03:16:45.736Z,973.81
2017-09-26T03:17:45.717Z,973.83
2017-09-26T03:18:45.774Z,973.80
2017-09-26T03:19:45.817Z,973.82
2017-09-26T03:20:45.859Z,973.83
2017-09-26T03:21:45.980Z,973.79
2017-09-26T03:22:45.954Z,973.81
2017-09-26T03:23:46.003Z,973.82
2017-09-26T03:24:46.055Z,973.77
2017-09-26T03:25:46.096Z,973.80
2017-09-26T03:26:46.209Z,973.82
2017-09-26T03:27:46.256Z,973.81
2017-09-26T03:28:46.238Z,973.83
2017-09-26T03:29:46.292Z,973.83
2017-09-26T03:30:46.335Z,973.83
2017-09-26T03:31:46.380Z,973.83
2017-09-26T03:32:46.492Z,973.86
2017-09-26T03:33:46.479Z,973.84
2017-09-26T03:34:46.522Z,973.90
2017-09-26T03:35:46.571Z,973.85
2017-09-26T03:36:46.618Z,973.84
2017-09-26T03:37:46.736Z,973.88
2017-09-26T03:38:46.713Z,973.93
2017-09-26T03:39:46.757Z,973.89
2017-09-26T03:40:46.806Z,973.92
2017-09-26T03:41:46.858Z,973.94
2017-09-26T03:42:46.968Z,973.92
2017-09-26T03:43:46.950Z,973.98
2017-09-26T03:44:47.002Z,973.91
2017-09-26T03:45:47.046Z,973.90
2017-09-26T03:46:47.096Z,973.90
2017-09-26T03:47:47.225Z,973.87
2017-09-26T03:48:47.188Z,973.89
2017-09-26T03:49:47.237Z,973.89
2017-09-26T03:50:47.283Z,973.87
2017-09-26T03:51:47.331Z,973.88
2017-09-26T03:52:47.454Z,973.85
2017-09-26T03:53:47.424Z,973.88
2017-09-26T03:54:47.477Z,973.88
2017-09-26T03:55:47.522Z,973.89
2017-09-26T03:56:47.571Z,973.90
2017-09-26T03:57:47.681Z,973.89
2017-09-26T03:58:47.727Z,973.93
2017-09-26T03:59:47.715Z,973.92
2017-09-26T04:00:47.761Z,973.94
2017-09-26T04:01:47.832Z,973.90
2017-09-26T04:02:47.854Z,973.92
2017-09-26T04:03:47.964Z,973.93
2017-09-26T04:04:47.950Z,973.90
2017-09-26T04:05:47.996Z,973.92
2017-09-26T04:06:48.045Z,973.91
2017-09-26T04:07:48.092Z,973.95
2017-09-26T04:08:48.208Z,973.95
2017-09-26T04:09:48.185Z,973.91
2017-09-26T04:10:48.234Z,973.92
2017-09-26T04:11:48.287Z,973.88
2017-09-26T04:12:48.326Z,973.90
2017-09-26T04:13:48.447Z,973.87
2017-09-26T04:14:48.427Z,973.88
2017-09-26T04:15:48.471Z,973.86
2017-09-26T04:16:48.520Z,973.87
2017-09-26T04:17:48.567Z,973.87
2017-09-26T04:18:48.698Z,973.89
2017-09-26T04:19:48.662Z,973.86
2017-09-26T04:20:48.710Z,973.87
2017-09-26T04:21:48.759Z,973.90
2017-09-26T04:22:48.812Z,973.86
2017-09-26T04:23:48.917Z,973.88
2017-09-26T04:24:48.966Z,973.89
2017-09-26T04:25:48.949Z,973.90
2017-09-26T04:26:48.998Z,973.90
2017-09-26T04:27:49.047Z,973.90
2017-09-26T04:28:49.094Z,973.89
2017-09-26T04:29:49.357Z,973.90
2017-09-26T04:30:49.189Z,973.87
2017-09-26T04:31:49.236Z,973.89
2017-09-26T04:32:49.282Z,973.90
2017-09-26T04:33:49.333Z,973.89
2017-09-26T04:34:49.443Z,973.92
2017-09-26T04:35:49.426Z,973.88
2017-09-26T04:36:49.473Z,973.86
2017-09-26T04:37:49.524Z,973.88
2017-09-26T04:38:49.568Z,973.88
2017-09-26T04:39:49.681Z,973.91
2017-09-26T04:40:49.665Z,973.88
2017-09-26T04:41:49.713Z,973.87
2017-09-26T04:42:49.759Z,973.91
2017-09-26T04:43:49.809Z,973.89
2017-09-26T04:44:49.922Z,973.89
2017-09-26T04:45:49.904Z,973.91
2017-09-26T04:46:49.953Z,973.93
2017-09-26T04:47:49.997Z,973.91
2017-09-26T04:48:50.047Z,973.92
2017-09-26T04:49:50.180Z,973.94
2017-09-26T04:50:50.149Z,973.96
2017-09-26T04:51:50.188Z,973.93
2017-09-26T04:52:50.237Z,973.97
2017-09-26T04:53:50.283Z,973.98
2017-09-26T04:54:50.407Z,973.99
2017-09-26T04:55:50.379Z,973.95
2017-09-26T04:56:50.429Z,974.00
2017-09-26T04:57:50.474Z,973.99
2017-09-26T04:58:50.527Z,973.97
2017-09-26T04:59:50.653Z,974.03
2017-09-26T05:00:50.617Z,974.00
2017-09-26T05:01:50.666Z,974.01
2017-09-26T05:02:50.715Z,973.98
2017-09-26T05:03:50.746Z,974.00
2017-09-26T05:04:50.869Z,974.02
2017-09-26T05:05:50.841Z,974.00
2017-09-26T05:06:50.892Z,974.01
2017-09-26T05:07:50.939Z,974.03
2017-09-26T05:08:50.986Z,974.02
2017-09-26T05:09:51.096Z,974.04
2017-09-26T05:10:51.142Z,974.04
2017-09-26T05:11:51.128Z,974.06
2017-09-26T05:12:51.172Z,974.09
2017-09-26T05:13:51.221Z,974.09
2017-09-26T05:14:51.270Z,974.12
2017-09-26T05:15:51.380Z,974.09
2017-09-26T05:16:51.365Z,974.09
2017-09-26T05:17:51.412Z,974.10
2017-09-26T05:18:51.461Z,974.09
2017-09-26T05:19:51.507Z,974.09
2017-09-26T05:20:51.626Z,974.14
2017-09-26T05:21:51.603Z,974.12
2017-09-26T05:22:51.652Z,974.17
2017-09-26T05:23:51.696Z,974.15
2017-09-26T05:24:51.744Z,974.17
2017-09-26T05:25:51.868Z,974.14
2017-09-26T05:26:51.840Z,974.16
2017-09-26T05:27:51.889Z,974.17
2017-09-26T05:28:51.936Z,974.15
2017-09-26T05:29:51.985Z,974.17
2017-09-26T05:30:52.095Z,974.22
2017-09-26T05:31:52.144Z,974.20
2017-09-26T05:32:52.130Z,974.24
2017-09-26T05:33:52.173Z,974.22
2017-09-26T05:34:52.220Z,974.22
2017-09-26T05:35:52.274Z,974.25
2017-09-26T05:36:52.379Z,974.22
2017-09-26T05:37:53.273Z,974.26
2017-09-26T05:38:52.413Z,974.24
2017-09-26T05:39:52.457Z,974.29
2017-09-26T05:40:52.507Z,974.30
2017-09-26T05:41:52.622Z,974.28
2017-09-26T05:42:52.599Z,974.29
2017-09-26T05:43:52.646Z,974.33
2017-09-26T05:44:52.695Z,974.33
2017-09-26T05:45:52.741Z,974.37
2017-09-26T05:46:52.853Z,974.37
2017-09-26T05:47:52.839Z,974.40
2017-09-26T05:48:52.884Z,974.41
2017-09-26T05:49:52.935Z,974.41
2017-09-26T05:50:52.996Z,974.41
2017-09-26T05:51:53.091Z,974.44
2017-09-26T05:52:53.074Z,974.39
2017-09-26T05:53:53.121Z,974.41
2017-09-26T05:54:53.170Z,974.41
2017-09-26T05:55:53.216Z,974.43
2017-09-26T05:56:53.334Z,974.41
2017-09-26T05:57:53.313Z,974.39
2017-09-26T05:58:53.358Z,974.42
2017-09-26T05:59:53.407Z,974.42
2017-09-26T06:00:53.454Z,974.42
2017-09-26T06:01:53.572Z,974.45
2017-09-26T06:02:53.547Z,974.43
2017-09-26T06:03:53.595Z,974.41
2017-09-26T06:04:53.645Z,974.40
2017-09-26T06:05:53.704Z,974.43
2017-09-26T06:06:53.833Z,974.41
2017-09-26T06:07:53.787Z,974.42
2017-09-26T06:08:53.839Z,974.47
2017-09-26T06:09:53.888Z,974.43
2017-09-26T06:10:53.935Z,974.46
2017-09-26T06:11:54.065Z,974.49
2017-09-26T06:12:54.022Z,974.45
2017-09-26T06:13:54.074Z,974.49
2017-09-26T06:14:54.123Z,974.48
2017-09-26T06:15:54.172Z,974.46
2017-09-26T06:16:54.281Z,974.48
2017-09-26T06:17:54.330Z,974.47
2017-09-26T06:18:54.317Z,974.48
2017-09-26T06:19:54.362Z,974.49
2017-09-26T06:20:54.412Z,974.47
2017-09-26T06:21:54.453Z,974.52
2017-09-26T06:22:54.573Z,974.52
2017-09-26T06:23:54.545Z,974.51
2017-09-26T06:24:54.598Z,974.52
2017-09-26T06:25:54.649Z,974.50
2017-09-26T06:26:54.695Z,974.50
2017-09-26T06:27:54.806Z,974.48
2017-09-26T06:28:54.791Z,974.49
2017-09-26T06:29:54.838Z,974.48
2017-09-26T06:30:54.887Z,974.51
2017-09-26T06:31:54.944Z,974.51
2017-09-26T06:32:55.049Z,974.53
2017-09-26T06:33:55.032Z,974.58
2017-09-26T06:34:55.089Z,974.55
2017-09-26T06:35:55.132Z,974.60
2017-09-26T06:36:55.179Z,974.62
2017-09-26T06:37:55.292Z,974.67
2017-09-26T06:38:55.276Z,974.63
2017-09-26T06:39:55.324Z,974.64
2017-09-26T06:40:55.373Z,974.68
2017-09-26T06:41:55.421Z,974.69
2017-09-26T06:42:55.536Z,974.71
2017-09-26T06:43:55.524Z,974.74
2017-09-26T06:44:55.569Z,974.72
2017-09-26T06:45:55.628Z,974.71
2017-09-26T06:46:55.670Z,974.73
2017-09-26T06:47:55.793Z,974.68
2017-09-26T06:48:55.771Z,974.69
2017-09-26T06:49:55.817Z,974.68
2017-09-26T06:50:55.871Z,974.68
2017-09-26T06:51:55.916Z,974.73
2017-09-26T06:52:56.030Z,974.72
2017-09-26T06:53:56.085Z,974.73
2017-09-26T06:54:56.174Z,974.73
2017-09-26T06:55:56.114Z,974.74
2017-09-26T06:56:56.164Z,974.74
2017-09-26T06:57:56.215Z,974.73
2017-09-26T06:58:56.341Z,974.80
2017-09-26T06:59:56.314Z,974.77
2017-09-26T07:00:56.363Z,974.80
2017-09-26T07:01:56.414Z,974.77
2017-09-26T07:02:56.463Z,974.76
2017-09-26T07:03:56.600Z,974.78
2017-09-26T07:04:56.565Z,974.81
2017-09-26T07:05:56.627Z,974.80
2017-09-26T07:06:56.659Z,974.82
2017-09-26T07:07:56.711Z,974.82
2017-09-26T07:08:56.840Z,974.83
2017-09-26T07:09:56.817Z,974.85
2017-09-26T07:10:56.862Z,974.86
2017-09-26T07:11:56.910Z,974.86
2017-09-26T07:12:56.965Z,974.89
2017-09-26T07:13:57.080Z,974.89
2017-09-26T07:14:57.130Z,974.85
2017-09-26T07:15:57.110Z,974.86
2017-09-26T07:16:57.167Z,974.87
2017-09-26T07:17:57.211Z,974.86
2017-09-26T07:18:57.262Z,974.89
2017-09-26T07:19:57.377Z,974.85
2017-09-26T07:20:57.365Z,974.89
2017-09-26T07:21:57.409Z,974.88
2017-09-26T07:22:57.461Z,974.85
2017-09-26T07:23:57.511Z,974.89
2017-09-26T07:24:57.630Z,974.89
2017-09-26T07:25:57.613Z,974.89
2017-09-26T07:26:57.660Z,974.90
2017-09-26T07:27:57.715Z,974.88
2017-09-26T07:28:58.126Z,974.88
2017-09-26T07:29:57.874Z,974.87
2017-09-26T07:30:57.859Z,974.89
2017-09-26T07:31:57.909Z,974.87
2017-09-26T07:32:57.957Z,974.86
2017-09-26T07:33:58.006Z,974.85
2017-09-26T07:34:58.133Z,974.90
2017-09-26T07:35:58.109Z,974.87
2017-09-26T07:36:58.159Z,974.90
2017-09-26T07:37:58.208Z,974.91
2017-09-26T07:38:58.260Z,974.90
2017-09-26T07:39:58.373Z,974.93
2017-09-26T07:40:58.424Z,974.93
2017-09-26T07:41:58.404Z,974.95
2017-09-26T07:42:58.456Z,974.92
2017-09-26T07:43:58.511Z,974.94
2017-09-26T07:44:58.558Z,974.96
2017-09-26T07:45:58.686Z,974.94
2017-09-26T07:46:58.658Z,974.95
2017-09-26T07:47:58.707Z,974.93
2017-09-26T07:48:58.759Z,974.96
2017-09-26T07:49:58.811Z,974.92
2017-09-26T07:50:58.946Z,974.97
2017-09-26T07:51:58.909Z,974.97
2017-09-26T07:52:58.966Z,974.98
2017-09-26T07:53:59.009Z,974.98
2017-09-26T07:54:59.062Z,974.99
2017-09-26T07:55:59.184Z,975.01
2017-09-26T07:56:59.168Z,975.02
2017-09-26T07:57:59.214Z,974.99
2017-09-26T07:58:59.265Z,975.04
2017-09-26T07:59:59.312Z,975.07
2017-09-26T08:00:59.449Z,975.02
2017-09-26T08:01:59.412Z,975.03
2017-09-26T08:02:59.465Z,975.05
2017-09-26T08:03:59.513Z,975.05
2017-09-26T08:04:59.563Z,975.03
2017-09-26T08:05:59.688Z,975.07
2017-09-26T08:06:59.668Z,975.06
2017-09-26T08:07:59.715Z,975.10
2017-09-26T08:08:59.767Z,975.06
2017-09-26T08:09:59.817Z,975.10
2017-09-26T08:10:59.952Z,975.09
2017-09-26T08:11:59.919Z,975.14
2017-09-26T08:12:59.971Z,975.10
2017-09-26T08:14:00.023Z,975.12
2017-09-26T08:15:00.073Z,975.15
2017-09-26T08:16:00.197Z,975.18
2017-09-26T08:17:00.210Z,975.16
2017-09-26T08:18:00.230Z,975.18
2017-09-26T08:19:00.276Z,975.23
2017-09-26T08:20:00.328Z,975.22
2017-09-26T08:21:00.464Z,975.23
2017-09-26T08:22:00.429Z,975.23
2017-09-26T08:23:00.486Z,975.24
2017-09-26T08:24:00.532Z,975.25
2017-09-26T08:25:00.587Z,975.27
2017-09-26T08:26:00.716Z,975.21
2017-09-26T08:27:00.690Z,975.25
2017-09-26T08:28:00.739Z,975.23
2017-09-26T08:29:00.791Z,975.23
2017-09-26T08:30:00.840Z,975.23
2017-09-26T08:31:00.985Z,975.20
2017-09-26T08:32:00.948Z,975.24
2017-09-26T08:33:01.006Z,975.24
2017-09-26T08:34:01.050Z,975.23
2017-09-26T08:35:01.101Z,975.26
2017-09-26T08:36:01.229Z,975.26
2017-09-26T08:37:01.268Z,975.28
2017-09-26T08:38:01.256Z,975.26
2017-09-26T08:39:01.318Z,975.27
2017-09-26T08:40:01.360Z,975.25
2017-09-26T08:41:01.412Z,975.26
2017-09-26T08:42:01.541Z,975.31
2017-09-26T08:43:01.516Z,975.30
2017-09-26T08:44:01.567Z,975.28
2017-09-26T08:45:01.622Z,975.29
2017-09-26T08:46:01.674Z,975.24
2017-09-26T08:47:01.813Z,975.26
2017-09-26T08:48:01.776Z,975.24
2017-09-26T08:49:01.826Z,975.25
2017-09-26T08:50:01.883Z,975.23
2017-09-26T08:51:01.932Z,975.26
2017-09-26T08:52:02.060Z,975.30
2017-09-26T08:53:02.034Z,975.26
2017-09-26T08:54:02.088Z,975.24
2017-09-26T08:55:02.141Z,975.27
2017-09-26T08:56:02.190Z,975.23
2017-09-26T08:57:02.324Z,975.22
2017-09-26T08:58:02.293Z,975.24
2017-09-26T08:59:02.348Z,975.24
2017-09-26T09:00:02.397Z,975.26
2017-09-26T09:01:02.450Z,975.23
2017-09-26T09:02:02.600Z,975.21
2017-09-26T09:03:02.560Z,975.23
2017-09-26T09:04:02.602Z,975.21
2017-09-26T09:05:02.658Z,975.20
2017-09-26T09:06:02.727Z,975.22
2017-09-26T09:07:02.844Z,975.19
2017-09-26T09:08:02.814Z,975.18
2017-09-26T09:09:02.868Z,975.19
2017-09-26T09:10:02.920Z,975.19
2017-09-26T09:11:02.972Z,975.17
2017-09-26T09:12:03.096Z,975.16
2017-09-26T09:13:03.144Z,975.18
2017-09-26T09:14:03.129Z,975.16
2017-09-26T09:15:03.186Z,975.17
2017-09-26T09:16:03.236Z,975.17
2017-09-26T09:17:03.287Z,975.15
2017-09-26T09:18:03.410Z,975.17
2017-09-26T09:19:03.394Z,975.15
2017-09-26T09:20:03.447Z,975.14
2017-09-26T09:21:03.497Z,975.14
2017-09-26T09:22:03.553Z,975.12
2017-09-26T09:23:03.674Z,975.14
2017-09-26T09:24:03.660Z,975.13
2017-09-26T09:25:03.714Z,975.14
2017-09-26T09:26:03.766Z,975.14
2017-09-26T09:27:03.822Z,975.14
2017-09-26T09:28:03.935Z,975.13
2017-09-26T09:29:03.932Z,975.13
2017-09-26T09:30:03.981Z,975.14
2017-09-26T09:31:04.032Z,975.17
2017-09-26T09:32:04.084Z,975.19
2017-09-26T09:33:04.216Z,975.17
2017-09-26T09:34:04.191Z,975.14
2017-09-26T09:35:04.251Z,975.12
2017-09-26T09:36:04.297Z,975.13
2017-09-26T09:37:04.353Z,975.10
2017-09-26T09:38:04.487Z,975.11
2017-09-26T09:39:04.460Z,975.09
2017-09-26T09:40:04.508Z,975.07
2017-09-26T09:41:04.563Z,975.06
2017-09-26T09:42:04.615Z,975.12
2017-09-26T09:43:04.748Z,975.13
2017-09-26T09:44:04.721Z,975.11
2017-09-26T09:45:04.818Z,975.08
2017-09-26T09:46:04.832Z,975.08
2017-09-26T09:47:04.882Z,975.05
2017-09-26T09:48:05.021Z,975.04
2017-09-26T09:49:04.987Z,975.03
2017-09-26T09:50:05.045Z,975.04
2017-09-26T09:51:05.096Z,975.02
2017-09-26T09:52:05.156Z,975.04
2017-09-26T09:53:05.269Z,975.05
2017-09-26T09:54:05.320Z,975.04
2017-09-26T09:55:05.309Z,975.08
2017-09-26T09:56:05.365Z,975.10
2017-09-26T09:57:05.417Z,975.06
2017-09-26T09:58:05.469Z,975.06
2017-09-26T09:59:05.598Z,975.03
2017-09-26T10:00:05.577Z,975.02
2017-09-26T10:01:05.637Z,975.06
2017-09-26T10:02:05.689Z,975.04
2017-09-26T10:03:05.755Z,975.01
2017-09-26T10:04:05.880Z,975.02
2017-09-26T10:05:05.849Z,975.02
2017-09-26T10:06:05.922Z,974.97
2017-09-26T10:07:05.961Z,974.98
2017-09-26T10:08:06.013Z,975.01
2017-09-26T10:09:06.150Z,974.95
2017-09-26T10:10:06.124Z,974.96
2017-09-26T10:11:06.181Z,974.98
2017-09-26T10:12:06.232Z,974.93
2017-09-26T10:13:06.290Z,974.96
2017-09-26T10:14:06.408Z,974.92
2017-09-26T10:15:06.465Z,974.91
2017-09-26T10:16:06.453Z,974.93
2017-09-26T10:17:06.508Z,974.90
2017-09-26T10:18:06.557Z,974.90
2017-09-26T10:19:06.696Z,974.89
2017-09-26T10:20:06.662Z,974.90
2017-09-26T10:21:06.717Z,974.91
2017-09-26T10:22:06.772Z,974.91
2017-09-26T10:23:06.821Z,974.88
2017-09-26T10:24:06.944Z,974.90
2017-09-26T10:25:06.995Z,974.90
2017-09-26T10:26:06.984Z,974.86
2017-09-26T10:27:07.038Z,974.83
2017-09-26T10:28:07.090Z,974.83
2017-09-26T10:29:07.144Z,974.84
2017-09-26T10:30:07.262Z,974.84
2017-09-26T10:31:07.253Z,974.84
2017-09-26T10:32:07.305Z,974.83
2017-09-26T10:33:07.356Z,974.86
2017-09-26T10:34:07.411Z,974.80
2017-09-26T10:35:07.547Z,974.82
2017-09-26T10:36:07.517Z,974.80
2017-09-26T10:37:07.572Z,974.80
2017-09-26T10:38:07.623Z,974.83
2017-09-26T10:39:07.677Z,974.79
2017-09-26T10:40:07.804Z,974.80
2017-09-26T10:41:07.783Z,974.80
2017-09-26T10:42:07.840Z,974.81
2017-09-26T10:43:07.890Z,974.80
2017-09-26T10:44:07.944Z,974.83
2017-09-26T10:45:08.065Z,974.82
2017-09-26T10:46:08.119Z,974.85
2017-09-26T10:47:08.105Z,974.86
2017-09-26T10:48:08.157Z,974.81
2017-09-26T10:49:08.211Z,974.87
2017-09-26T10:50:08.265Z,974.81
2017-09-26T10:51:08.383Z,974.79
2017-09-26T10:52:08.371Z,974.85
2017-09-26T10:53:08.426Z,974.81
2017-09-26T10:54:08.483Z,974.84
2017-09-26T10:55:08.534Z,974.81
2017-09-26T10:56:08.652Z,974.85
2017-09-26T10:57:08.644Z,974.83
2017-09-26T10:58:08.695Z,974.82
2017-09-26T10:59:08.749Z,974.84
2017-09-26T11:00:08.804Z,974.87
2017-09-26T11:01:08.927Z,974.88
2017-09-26T11:02:08.912Z,974.89
2017-09-26T11:03:08.971Z,974.92
2017-09-26T11:04:09.019Z,974.87
2017-09-26T11:05:09.073Z,974.91
2017-09-26T11:06:09.192Z,974.89
2017-09-26T11:07:09.189Z,974.89
2017-09-26T11:08:09.233Z,974.93
2017-09-26T11:09:09.299Z,974.93
2017-09-26T11:10:09.347Z,974.93
2017-09-26T11:11:09.466Z,974.92
2017-09-26T11:12:09.457Z,974.88
2017-09-26T11:13:09.505Z,974.89
2017-09-26T11:14:09.560Z,974.84
2017-09-26T11:15:09.614Z,974.85
2017-09-26T11:16:09.753Z,974.89
2017-09-26T11:17:09.720Z,974.87
2017-09-26T11:18:09.778Z,974.84
2017-09-26T11:19:09.832Z,974.86
2017-09-26T11:20:09.886Z,974.83
2017-09-26T11:21:10.007Z,974.85
2017-09-26T11:22:10.056Z,974.81
2017-09-26T11:23:10.046Z,974.80
2017-09-26T11:24:10.095Z,974.80
2017-09-26T11:25:10.155Z,974.81
2017-09-26T11:26:10.207Z,974.80
2017-09-26T11:27:10.330Z,974.76
2017-09-26T11:28:10.312Z,974.80
2017-09-26T11:29:10.370Z,974.80
2017-09-26T11:30:10.428Z,974.79
2017-09-26T11:31:10.481Z,974.81
2017-09-26T11:32:10.597Z,974.79
2017-09-26T11:33:10.588Z,974.82
2017-09-26T11:34:10.642Z,974.80
2017-09-26T11:35:10.696Z,974.82
2017-09-26T11:36:10.751Z,974.81
2017-09-26T11:37:10.888Z,974.80
2017-09-26T11:38:10.863Z,974.80
2017-09-26T11:39:10.914Z,974.76
2017-09-26T11:40:10.968Z,974.79
2017-09-26T11:41:11.023Z,974.75
2017-09-26T11:42:11.152Z,974.73
2017-09-26T11:43:11.132Z,974.75
2017-09-26T11:44:11.185Z,974.74
2017-09-26T11:45:11.240Z,974.74
2017-09-26T11:46:11.294Z,974.71
2017-09-26T11:47:11.434Z,974.70
2017-09-26T11:48:11.405Z,974.72
2017-09-26T11:49:11.458Z,974.72
2017-09-26T11:50:11.517Z,974.67
2017-09-26T11:51:11.569Z,974.63
2017-09-26T11:52:11.700Z,974.66
2017-09-26T11:53:11.679Z,974.66
2017-09-26T11:54:11.736Z,974.66
2017-09-26T11:55:11.789Z,974.68
2017-09-26T11:56:11.847Z,974.66
2017-09-26T11:57:11.967Z,974.65
2017-09-26T11:58:12.021Z,974.68
2017-09-26T11:59:12.014Z,974.68
2017-09-26T12:00:12.070Z,974.65
2017-09-26T12:01:12.126Z,974.65
2017-09-26T12:02:12.183Z,974.68
2017-09-26T12:03:12.303Z,974.68
2017-09-26T12:04:12.303Z,974.69
2017-09-26T12:05:12.358Z,974.65
2017-09-26T12:06:12.412Z,974.67
2017-09-26T12:07:12.468Z,974.65
2017-09-26T12:08:12.589Z,974.64
2017-09-26T12:09:12.582Z,974.62
2017-09-26T12:10:12.642Z,974.67
2017-09-26T12:11:12.699Z,974.65
2017-09-26T12:12:12.758Z,974.60
2017-09-26T12:13:12.890Z,974.59
2017-09-26T12:14:12.873Z,974.58
2017-09-26T12:15:12.957Z,974.58
2017-09-26T12:16:12.990Z,974.58
2017-09-26T12:17:13.049Z,974.57
2017-09-26T12:18:13.190Z,974.52
2017-09-26T12:19:13.166Z,974.48
2017-09-26T12:20:13.223Z,974.52
2017-09-26T12:21:13.283Z,974.50
2017-09-26T12:22:13.343Z,974.50
2017-09-26T12:23:13.481Z,974.47
2017-09-26T12:24:13.464Z,974.47
2017-09-26T12:25:13.519Z,974.46
2017-09-26T12:26:13.583Z,974.48
2017-09-26T12:27:13.638Z,974.46
2017-09-26T12:28:13.759Z,974.43
2017-09-26T12:29:13.818Z,974.47